sensor_id;sensor_type;location;lat;lon;timestamp;temperature;humidity
65876;HTU21D;52657;51.128;5.938;2023-05-29T00:00:21;18.23;56.82
65876;HTU21D;52657;51.128;5.938;2023-05-29T00:02:47;18.18;56.87
65876;HTU21D;52657;51.128;5.938;2023-05-29T00:05:14;18.22;56.87
65876;HTU21D;52657;51.128;5.938;2023-05-29T00:07:41;18.21;56.84
65876;HTU21D;52657;51.128;5.938;2023-05-29T00:10:08;18.15;57.06
65876;HTU21D;52657;51.128;5.938;2023-05-29T00:12:38;18.13;57.22
65876;HTU21D;52657;51.128;5.938;2023-05-29T00:15:05;18.11;57.38
65876;HTU21D;52657;51.128;5.938;2023-05-29T00:17:33;18.08;57.66
65876;HTU21D;52657;51.128;5.938;2023-05-29T00:20:00;18.04;57.87
65876;HTU21D;52657;51.128;5.938;2023-05-29T00:22:27;17.98;58.12
65876;HTU21D;52657;51.128;5.938;2023-05-29T00:24:55;17.96;58.26
65876;HTU21D;52657;51.128;5.938;2023-05-29T00:27:21;17.95;58.28
65876;HTU21D;52657;51.128;5.938;2023-05-29T00:29:46;17.92;58.38
65876;HTU21D;52657;51.128;5.938;2023-05-29T00:32:15;17.88;58.55
65876;HTU21D;52657;51.128;5.938;2023-05-29T00:34:40;17.84;58.60
65876;HTU21D;52657;51.128;5.938;2023-05-29T00:37:06;17.79;58.77
65876;HTU21D;52657;51.128;5.938;2023-05-29T00:39:32;17.76;58.89
65876;HTU21D;52657;51.128;5.938;2023-05-29T00:41:57;17.73;59.03
65876;HTU21D;52657;51.128;5.938;2023-05-29T00:44:23;17.67;59.43
65876;HTU21D;52657;51.128;5.938;2023-05-29T00:46:52;17.61;59.48
65876;HTU21D;52657;51.128;5.938;2023-05-29T00:49:20;17.50;59.62
65876;HTU21D;52657;51.128;5.938;2023-05-29T00:51:51;17.41;60.06
65876;HTU21D;52657;51.128;5.938;2023-05-29T00:54:22;17.28;60.58
65876;HTU21D;52657;51.128;5.938;2023-05-29T00:56:49;17.14;61.15
65876;HTU21D;52657;51.128;5.938;2023-05-29T00:59:15;16.98;61.63
65876;HTU21D;52657;51.128;5.938;2023-05-29T01:01:42;16.93;61.81
65876;HTU21D;52657;51.128;5.938;2023-05-29T01:04:10;16.92;62.01
65876;HTU21D;52657;51.128;5.938;2023-05-29T01:06:38;16.80;62.32
65876;HTU21D;52657;51.128;5.938;2023-05-29T01:09:06;16.77;62.53
65876;HTU21D;52657;51.128;5.938;2023-05-29T01:14:20;16.57;63.47
65876;HTU21D;52657;51.128;5.938;2023-05-29T01:17:04;16.55;63.66
65876;HTU21D;52657;51.128;5.938;2023-05-29T01:23:04;16.34;64.36
65876;HTU21D;52657;51.128;5.938;2023-05-29T01:28:47;16.42;64.29
65876;HTU21D;52657;51.128;5.938;2023-05-29T01:31:25;16.42;64.36
65876;HTU21D;52657;51.128;5.938;2023-05-29T01:33:56;16.30;64.53
65876;HTU21D;52657;51.128;5.938;2023-05-29T01:36:23;16.21;64.83
65876;HTU21D;52657;51.128;5.938;2023-05-29T01:38:56;16.20;64.94
65876;HTU21D;52657;51.128;5.938;2023-05-29T01:41:25;16.26;64.92
65876;HTU21D;52657;51.128;5.938;2023-05-29T01:43:51;16.20;65.15
65876;HTU21D;52657;51.128;5.938;2023-05-29T01:46:21;16.06;65.56
65876;HTU21D;52657;51.128;5.938;2023-05-29T01:48:51;15.97;65.81
65876;HTU21D;52657;51.128;5.938;2023-05-29T01:51:22;15.91;65.82
65876;HTU21D;52657;51.128;5.938;2023-05-29T01:53:50;15.83;66.02
65876;HTU21D;52657;51.128;5.938;2023-05-29T01:56:15;15.80;66.35
65876;HTU21D;52657;51.128;5.938;2023-05-29T01:58:46;15.81;66.28
65876;HTU21D;52657;51.128;5.938;2023-05-29T02:01:14;15.78;66.43
65876;HTU21D;52657;51.128;5.938;2023-05-29T02:03:54;15.71;66.44
65876;HTU21D;52657;51.128;5.938;2023-05-29T02:06:20;15.70;66.39
65876;HTU21D;52657;51.128;5.938;2023-05-29T02:08:46;15.65;66.57
65876;HTU21D;52657;51.128;5.938;2023-05-29T02:11:12;15.66;66.47
65876;HTU21D;52657;51.128;5.938;2023-05-29T02:13:41;15.60;66.24
65876;HTU21D;52657;51.128;5.938;2023-05-29T02:16:07;15.56;66.42
65876;HTU21D;52657;51.128;5.938;2023-05-29T02:18:36;15.56;66.15
65876;HTU21D;52657;51.128;5.938;2023-05-29T02:21:01;15.54;66.04
65876;HTU21D;52657;51.128;5.938;2023-05-29T02:23:27;15.54;65.82
65876;HTU21D;52657;51.128;5.938;2023-05-29T02:25:55;15.56;65.50
65876;HTU21D;52657;51.128;5.938;2023-05-29T02:28:21;15.53;65.46
65876;HTU21D;52657;51.128;5.938;2023-05-29T02:30:46;15.44;65.46
65876;HTU21D;52657;51.128;5.938;2023-05-29T02:33:16;15.38;65.43
65876;HTU21D;52657;51.128;5.938;2023-05-29T02:35:41;15.31;65.32
65876;HTU21D;52657;51.128;5.938;2023-05-29T02:38:13;15.27;65.19
65876;HTU21D;52657;51.128;5.938;2023-05-29T02:40:40;15.17;65.36
65876;HTU21D;52657;51.128;5.938;2023-05-29T02:43:07;15.11;65.38
65876;HTU21D;52657;51.128;5.938;2023-05-29T02:45:33;14.99;65.56
65876;HTU21D;52657;51.128;5.938;2023-05-29T02:48:08;14.96;65.66
65876;HTU21D;52657;51.128;5.938;2023-05-29T02:50:34;14.89;65.88
65876;HTU21D;52657;51.128;5.938;2023-05-29T02:53:00;14.89;65.56
65876;HTU21D;52657;51.128;5.938;2023-05-29T02:55:25;14.88;65.49
65876;HTU21D;52657;51.128;5.938;2023-05-29T02:57:51;14.85;65.44
65876;HTU21D;52657;51.128;5.938;2023-05-29T03:00:20;14.85;65.16
65876;HTU21D;52657;51.128;5.938;2023-05-29T03:02:46;14.83;65.00
65876;HTU21D;52657;51.128;5.938;2023-05-29T03:05:12;14.83;64.98
65876;HTU21D;52657;51.128;5.938;2023-05-29T03:07:38;14.86;64.52
65876;HTU21D;52657;51.128;5.938;2023-05-29T03:10:04;14.85;64.21
65876;HTU21D;52657;51.128;5.938;2023-05-29T03:12:31;14.78;64.36
65876;HTU21D;52657;51.128;5.938;2023-05-29T03:14:56;14.69;64.22
65876;HTU21D;52657;51.128;5.938;2023-05-29T03:17:22;14.63;64.24
65876;HTU21D;52657;51.128;5.938;2023-05-29T03:19:48;14.58;64.30
65876;HTU21D;52657;51.128;5.938;2023-05-29T03:22:17;14.55;64.16
65876;HTU21D;52657;51.128;5.938;2023-05-29T03:24:42;14.50;64.19
65876;HTU21D;52657;51.128;5.938;2023-05-29T03:27:08;14.49;63.95
65876;HTU21D;52657;51.128;5.938;2023-05-29T03:29:35;14.44;64.02
65876;HTU21D;52657;51.128;5.938;2023-05-29T03:32:02;14.44;64.05
65876;HTU21D;52657;51.128;5.938;2023-05-29T03:34:31;14.45;63.76
65876;HTU21D;52657;51.128;5.938;2023-05-29T03:36:58;14.41;63.59
65876;HTU21D;52657;51.128;5.938;2023-05-29T03:39:28;14.38;63.73
65876;HTU21D;52657;51.128;5.938;2023-05-29T03:41:54;14.38;63.55
65876;HTU21D;52657;51.128;5.938;2023-05-29T03:44:20;14.33;63.70
65876;HTU21D;52657;51.128;5.938;2023-05-29T03:46:46;14.34;63.73
65876;HTU21D;52657;51.128;5.938;2023-05-29T03:49:12;14.34;63.69
65876;HTU21D;52657;51.128;5.938;2023-05-29T03:51:50;14.33;63.46
65876;HTU21D;52657;51.128;5.938;2023-05-29T03:54:16;14.28;63.59
65876;HTU21D;52657;51.128;5.938;2023-05-29T03:56:43;14.26;63.55
65876;HTU21D;52657;51.128;5.938;2023-05-29T03:59:11;14.22;63.66
65876;HTU21D;52657;51.128;5.938;2023-05-29T04:01:36;14.35;63.67
65876;HTU21D;52657;51.128;5.938;2023-05-29T04:04:08;14.50;63.04
65876;HTU21D;52657;51.128;5.938;2023-05-29T04:06:34;14.57;62.72
65876;HTU21D;52657;51.128;5.938;2023-05-29T04:09:05;14.75;62.24
65876;HTU21D;52657;51.128;5.938;2023-05-29T04:11:35;14.94;61.44
65876;HTU21D;52657;51.128;5.938;2023-05-29T04:14:11;15.15;60.87
65876;HTU21D;52657;51.128;5.938;2023-05-29T04:16:39;15.33;60.02
65876;HTU21D;52657;51.128;5.938;2023-05-29T04:19:08;15.43;59.32
65876;HTU21D;52657;51.128;5.938;2023-05-29T04:21:34;15.48;59.09
65876;HTU21D;52657;51.128;5.938;2023-05-29T04:24:03;15.55;57.93
65876;HTU21D;52657;51.128;5.938;2023-05-29T04:26:29;15.51;58.36
65876;HTU21D;52657;51.128;5.938;2023-05-29T04:29:01;15.56;58.03
65876;HTU21D;52657;51.128;5.938;2023-05-29T04:31:27;15.54;58.28
65876;HTU21D;52657;51.128;5.938;2023-05-29T04:33:54;15.65;58.10
65876;HTU21D;52657;51.128;5.938;2023-05-29T04:36:24;15.83;57.48
65876;HTU21D;52657;51.128;5.938;2023-05-29T04:38:53;15.98;57.16
65876;HTU21D;52657;51.128;5.938;2023-05-29T04:41:20;16.19;56.46
65876;HTU21D;52657;51.128;5.938;2023-05-29T04:43:50;16.40;56.42
65876;HTU21D;52657;51.128;5.938;2023-05-29T04:46:18;16.71;55.31
65876;HTU21D;52657;51.128;5.938;2023-05-29T04:48:46;17.00;53.81
65876;HTU21D;52657;51.128;5.938;2023-05-29T04:51:22;16.88;53.68
65876;HTU21D;52657;51.128;5.938;2023-05-29T04:53:50;16.86;53.77
65876;HTU21D;52657;51.128;5.938;2023-05-29T04:56:17;16.86;53.88
65876;HTU21D;52657;51.128;5.938;2023-05-29T04:58:44;16.93;52.88
65876;HTU21D;52657;51.128;5.938;2023-05-29T05:01:11;16.69;53.10
65876;HTU21D;52657;51.128;5.938;2023-05-29T05:03:43;16.32;54.32
65876;HTU21D;52657;51.128;5.938;2023-05-29T05:06:09;16.10;54.96
65876;HTU21D;52657;51.128;5.938;2023-05-29T05:08:38;15.76;56.17
65876;HTU21D;52657;51.128;5.938;2023-05-29T05:11:09;15.56;56.84
65876;HTU21D;52657;51.128;5.938;2023-05-29T05:13:35;15.46;57.51
65876;HTU21D;52657;51.128;5.938;2023-05-29T05:16:01;15.37;57.69
65876;HTU21D;52657;51.128;5.938;2023-05-29T05:18:28;15.28;58.21
65876;HTU21D;52657;51.128;5.938;2023-05-29T05:21:01;15.24;58.30
65876;HTU21D;52657;51.128;5.938;2023-05-29T05:23:28;15.13;58.61
65876;HTU21D;52657;51.128;5.938;2023-05-29T05:25:54;15.12;59.03
65876;HTU21D;52657;51.128;5.938;2023-05-29T05:28:20;15.14;58.93
65876;HTU21D;52657;51.128;5.938;2023-05-29T05:30:46;15.10;59.05
65876;HTU21D;52657;51.128;5.938;2023-05-29T05:33:12;14.99;59.28
65876;HTU21D;52657;51.128;5.938;2023-05-29T05:35:41;15.07;59.12
65876;HTU21D;52657;51.128;5.938;2023-05-29T05:38:06;14.94;59.66
65876;HTU21D;52657;51.128;5.938;2023-05-29T05:40:33;14.92;59.83
65876;HTU21D;52657;51.128;5.938;2023-05-29T05:43:16;14.89;59.96
65876;HTU21D;52657;51.128;5.938;2023-05-29T05:46:04;15.06;59.64
65876;HTU21D;52657;51.128;5.938;2023-05-29T05:48:34;15.09;59.94
65876;HTU21D;52657;51.128;5.938;2023-05-29T05:51:03;15.36;59.44
65876;HTU21D;52657;51.128;5.938;2023-05-29T05:53:30;15.75;58.55
65876;HTU21D;52657;51.128;5.938;2023-05-29T05:55:58;16.24;57.36
65876;HTU21D;52657;51.128;5.938;2023-05-29T05:58:24;16.61;55.66
65876;HTU21D;52657;51.128;5.938;2023-05-29T06:00:50;16.93;54.71
65876;HTU21D;52657;51.128;5.938;2023-05-29T06:03:18;17.36;52.91
65876;HTU21D;52657;51.128;5.938;2023-05-29T06:05:56;17.51;53.13
65876;HTU21D;52657;51.128;5.938;2023-05-29T06:08:24;17.76;52.22
65876;HTU21D;52657;51.128;5.938;2023-05-29T06:10:56;18.17;50.89
65876;HTU21D;52657;51.128;5.938;2023-05-29T06:13:22;18.04;50.68
65876;HTU21D;52657;51.128;5.938;2023-05-29T06:16:03;18.22;50.41
65876;HTU21D;52657;51.128;5.938;2023-05-29T06:18:31;18.27;50.14
65876;HTU21D;52657;51.128;5.938;2023-05-29T06:21:00;18.58;50.53
65876;HTU21D;52657;51.128;5.938;2023-05-29T06:23:27;18.97;48.81
65876;HTU21D;52657;51.128;5.938;2023-05-29T06:25:56;19.13;48.31
65876;HTU21D;52657;51.128;5.938;2023-05-29T06:28:24;19.29;47.60
65876;HTU21D;52657;51.128;5.938;2023-05-29T06:30:53;19.37;47.60
65876;HTU21D;52657;51.128;5.938;2023-05-29T06:33:19;19.54;48.04
65876;HTU21D;52657;51.128;5.938;2023-05-29T06:35:47;19.96;46.64
65876;HTU21D;52657;51.128;5.938;2023-05-29T06:38:16;20.09;45.41
65876;HTU21D;52657;51.128;5.938;2023-05-29T06:40:42;20.17;45.16
65876;HTU21D;52657;51.128;5.938;2023-05-29T06:43:08;20.24;45.10
65876;HTU21D;52657;51.128;5.938;2023-05-29T06:45:39;20.65;43.42
65876;HTU21D;52657;51.128;5.938;2023-05-29T06:48:06;20.56;44.30
65876;HTU21D;52657;51.128;5.938;2023-05-29T06:50:37;20.75;43.45
65876;HTU21D;52657;51.128;5.938;2023-05-29T06:53:23;20.62;43.67
65876;HTU21D;52657;51.128;5.938;2023-05-29T06:55:52;20.54;43.32
65876;HTU21D;52657;51.128;5.938;2023-05-29T06:58:18;20.54;43.79
65876;HTU21D;52657;51.128;5.938;2023-05-29T07:00:44;20.75;43.86
65876;HTU21D;52657;51.128;5.938;2023-05-29T07:03:33;21.22;42.85
65876;HTU21D;52657;51.128;5.938;2023-05-29T07:06:01;21.38;41.97
65876;HTU21D;52657;51.128;5.938;2023-05-29T07:08:27;21.44;41.11
65876;HTU21D;52657;51.128;5.938;2023-05-29T07:10:53;21.40;41.75
65876;HTU21D;52657;51.128;5.938;2023-05-29T07:13:20;21.49;40.78
65876;HTU21D;52657;51.128;5.938;2023-05-29T07:15:51;21.33;41.39
65876;HTU21D;52657;51.128;5.938;2023-05-29T07:18:32;21.38;41.25
65876;HTU21D;52657;51.128;5.938;2023-05-29T07:21:04;21.59;41.70
65876;HTU21D;52657;51.128;5.938;2023-05-29T07:23:32;21.89;40.61
65876;HTU21D;52657;51.128;5.938;2023-05-29T07:25:58;22.10;40.17
65876;HTU21D;52657;51.128;5.938;2023-05-29T07:28:27;22.34;39.59
65876;HTU21D;52657;51.128;5.938;2023-05-29T07:30:53;22.69;38.78
65876;HTU21D;52657;51.128;5.938;2023-05-29T07:33:19;22.80;38.63
65876;HTU21D;52657;51.128;5.938;2023-05-29T07:35:45;22.96;37.50
65876;HTU21D;52657;51.128;5.938;2023-05-29T07:38:11;22.92;37.82
65876;HTU21D;52657;51.128;5.938;2023-05-29T07:40:39;22.92;37.98
65876;HTU21D;52657;51.128;5.938;2023-05-29T07:43:13;23.11;37.05
65876;HTU21D;52657;51.128;5.938;2023-05-29T07:45:46;22.78;37.64
65876;HTU21D;52657;51.128;5.938;2023-05-29T07:48:15;22.88;37.92
65876;HTU21D;52657;51.128;5.938;2023-05-29T07:50:41;23.06;37.24
65876;HTU21D;52657;51.128;5.938;2023-05-29T07:53:07;23.02;37.17
65876;HTU21D;52657;51.128;5.938;2023-05-29T07:55:36;22.85;37.79
65876;HTU21D;52657;51.128;5.938;2023-05-29T07:58:01;22.90;37.88
65876;HTU21D;52657;51.128;5.938;2023-05-29T08:00:27;22.76;37.94
65876;HTU21D;52657;51.128;5.938;2023-05-29T08:02:54;22.44;38.27
65876;HTU21D;52657;51.128;5.938;2023-05-29T08:05:29;22.64;38.11
65876;HTU21D;52657;51.128;5.938;2023-05-29T08:07:57;22.68;38.27
65876;HTU21D;52657;51.128;5.938;2023-05-29T08:10:25;22.78;37.97
65876;HTU21D;52657;51.128;5.938;2023-05-29T08:12:50;22.66;38.30
65876;HTU21D;52657;51.128;5.938;2023-05-29T08:15:18;22.75;38.27
65876;HTU21D;52657;51.128;5.938;2023-05-29T08:17:44;22.92;37.79
65876;HTU21D;52657;51.128;5.938;2023-05-29T08:20:10;22.91;37.40
65876;HTU21D;52657;51.128;5.938;2023-05-29T08:22:36;22.57;37.88
65876;HTU21D;52657;51.128;5.938;2023-05-29T08:25:02;22.38;38.50
65876;HTU21D;52657;51.128;5.938;2023-05-29T08:27:27;22.35;38.45
65876;HTU21D;52657;51.128;5.938;2023-05-29T08:29:53;22.36;38.46
65876;HTU21D;52657;51.128;5.938;2023-05-29T08:32:20;22.36;38.78
65876;HTU21D;52657;51.128;5.938;2023-05-29T08:34:52;22.50;39.00
65876;HTU21D;52657;51.128;5.938;2023-05-29T08:37:17;22.69;38.04
65876;HTU21D;52657;51.128;5.938;2023-05-29T08:39:43;22.58;38.27
65876;HTU21D;52657;51.128;5.938;2023-05-29T08:42:21;22.43;38.48
65876;HTU21D;52657;51.128;5.938;2023-05-29T08:44:56;22.37;38.78
65876;HTU21D;52657;51.128;5.938;2023-05-29T08:47:28;22.33;38.87
65876;HTU21D;52657;51.128;5.938;2023-05-29T08:50:00;22.19;39.35
65876;HTU21D;52657;51.128;5.938;2023-05-29T08:52:32;22.32;38.96
65876;HTU21D;52657;51.128;5.938;2023-05-29T08:55:03;22.35;39.25
65876;HTU21D;52657;51.128;5.938;2023-05-29T08:57:32;22.34;39.08
65876;HTU21D;52657;51.128;5.938;2023-05-29T09:00:00;22.41;38.65
65876;HTU21D;52657;51.128;5.938;2023-05-29T09:02:32;22.10;39.17
65876;HTU21D;52657;51.128;5.938;2023-05-29T09:05:00;22.10;39.32
65876;HTU21D;52657;51.128;5.938;2023-05-29T09:07:26;22.16;39.81
65876;HTU21D;52657;51.128;5.938;2023-05-29T09:10:06;22.26;39.61
65876;HTU21D;52657;51.128;5.938;2023-05-29T09:12:38;22.38;39.61
65876;HTU21D;52657;51.128;5.938;2023-05-29T09:15:17;22.42;39.29
65876;HTU21D;52657;51.128;5.938;2023-05-29T09:17:49;22.39;39.45
65876;HTU21D;52657;51.128;5.938;2023-05-29T09:20:16;22.34;39.15
65876;HTU21D;52657;51.128;5.938;2023-05-29T09:22:52;22.49;39.27
65876;HTU21D;52657;51.128;5.938;2023-05-29T09:25:27;22.44;38.97
65876;HTU21D;52657;51.128;5.938;2023-05-29T09:28:08;22.27;38.93
65876;HTU21D;52657;51.128;5.938;2023-05-29T09:33:11;22.10;39.88
65876;HTU21D;52657;51.128;5.938;2023-05-29T09:38:10;22.12;40.07
65876;HTU21D;52657;51.128;5.938;2023-05-29T09:46:17;22.18;39.84
65876;HTU21D;52657;51.128;5.938;2023-05-29T09:48:44;22.11;40.16
65876;HTU21D;52657;51.128;5.938;2023-05-29T09:51:23;22.20;40.01
65876;HTU21D;52657;51.128;5.938;2023-05-29T09:53:50;22.33;39.58
65876;HTU21D;52657;51.128;5.938;2023-05-29T09:56:23;22.42;39.47
65876;HTU21D;52657;51.128;5.938;2023-05-29T09:58:51;22.52;39.15
65876;HTU21D;52657;51.128;5.938;2023-05-29T10:01:17;22.58;39.26
65876;HTU21D;52657;51.128;5.938;2023-05-29T10:03:43;22.69;38.69
65876;HTU21D;52657;51.128;5.938;2023-05-29T10:06:18;22.81;38.30
65876;HTU21D;52657;51.128;5.938;2023-05-29T10:08:49;22.67;38.35
65876;HTU21D;52657;51.128;5.938;2023-05-29T10:11:21;22.52;38.47
65876;HTU21D;52657;51.128;5.938;2023-05-29T10:13:54;22.60;38.69
65876;HTU21D;52657;51.128;5.938;2023-05-29T10:16:25;22.66;38.39
65876;HTU21D;52657;51.128;5.938;2023-05-29T10:18:56;22.69;38.35
65876;HTU21D;52657;51.128;5.938;2023-05-29T10:21:27;22.88;37.78
65876;HTU21D;52657;51.128;5.938;2023-05-29T10:23:57;22.72;37.68
65876;HTU21D;52657;51.128;5.938;2023-05-29T10:26:27;22.63;37.72
65876;HTU21D;52657;51.128;5.938;2023-05-29T10:31:49;22.61;39.09
65876;HTU21D;52657;51.128;5.938;2023-05-29T10:34:39;22.83;38.44
65876;HTU21D;52657;51.128;5.938;2023-05-29T10:37:20;22.91;37.80
65876;HTU21D;52657;51.128;5.938;2023-05-29T10:39:50;23.01;37.88
65876;HTU21D;52657;51.128;5.938;2023-05-29T10:42:41;23.16;37.12
65876;HTU21D;52657;51.128;5.938;2023-05-29T10:45:08;23.21;36.98
65876;HTU21D;52657;51.128;5.938;2023-05-29T10:47:34;23.26;37.17
65876;HTU21D;52657;51.128;5.938;2023-05-29T10:50:02;23.43;37.02
65876;HTU21D;52657;51.128;5.938;2023-05-29T10:52:45;23.60;36.82
65876;HTU21D;52657;51.128;5.938;2023-05-29T10:55:16;23.70;35.47
65876;HTU21D;52657;51.128;5.938;2023-05-29T10:57:46;23.55;35.67
65876;HTU21D;52657;51.128;5.938;2023-05-29T11:00:16;23.52;36.09
65876;HTU21D;52657;51.128;5.938;2023-05-29T11:02:47;23.44;35.98
65876;HTU21D;52657;51.128;5.938;2023-05-29T11:05:22;23.44;36.22
65876;HTU21D;52657;51.128;5.938;2023-05-29T11:07:56;23.51;36.37
65876;HTU21D;52657;51.128;5.938;2023-05-29T11:10:41;23.66;36.34
65876;HTU21D;52657;51.128;5.938;2023-05-29T11:13:09;23.61;35.87
65876;HTU21D;52657;51.128;5.938;2023-05-29T11:15:39;23.52;35.57
65876;HTU21D;52657;51.128;5.938;2023-05-29T11:18:08;23.27;36.40
65876;HTU21D;52657;51.128;5.938;2023-05-29T11:20:51;23.32;36.98
65876;HTU21D;52657;51.128;5.938;2023-05-29T11:23:19;23.40;36.68
65876;HTU21D;52657;51.128;5.938;2023-05-29T11:25:49;23.40;36.43
65876;HTU21D;52657;51.128;5.938;2023-05-29T11:28:16;23.35;36.25
65876;HTU21D;52657;51.128;5.938;2023-05-29T11:30:46;23.26;36.89
65876;HTU21D;52657;51.128;5.938;2023-05-29T11:33:23;23.42;36.80
65876;HTU21D;52657;51.128;5.938;2023-05-29T11:35:59;23.41;36.28
65876;HTU21D;52657;51.128;5.938;2023-05-29T11:38:26;23.23;36.82
65876;HTU21D;52657;51.128;5.938;2023-05-29T11:40:54;23.35;37.01
65876;HTU21D;52657;51.128;5.938;2023-05-29T11:43:20;23.52;36.55
65876;HTU21D;52657;51.128;5.938;2023-05-29T11:45:48;23.68;36.35
65876;HTU21D;52657;51.128;5.938;2023-05-29T11:48:28;23.82;36.00
65876;HTU21D;52657;51.128;5.938;2023-05-29T11:50:53;23.84;35.64
65876;HTU21D;52657;51.128;5.938;2023-05-29T11:53:19;23.92;35.47
65876;HTU21D;52657;51.128;5.938;2023-05-29T11:55:48;24.11;35.18
65876;HTU21D;52657;51.128;5.938;2023-05-29T11:58:14;23.99;35.11
65876;HTU21D;52657;51.128;5.938;2023-05-29T12:00:42;23.87;35.29
65876;HTU21D;52657;51.128;5.938;2023-05-29T12:03:08;23.80;36.04
65876;HTU21D;52657;51.128;5.938;2023-05-29T12:05:48;23.57;35.71
65876;HTU21D;52657;51.128;5.938;2023-05-29T12:08:15;23.44;35.83
65876;HTU21D;52657;51.128;5.938;2023-05-29T12:10:48;23.43;36.22
65876;HTU21D;52657;51.128;5.938;2023-05-29T12:13:14;23.43;36.32
65876;HTU21D;52657;51.128;5.938;2023-05-29T12:15:43;23.52;36.27
65876;HTU21D;52657;51.128;5.938;2023-05-29T12:18:10;23.59;36.14
65876;HTU21D;52657;51.128;5.938;2023-05-29T12:20:39;23.46;36.43
65876;HTU21D;52657;51.128;5.938;2023-05-29T12:23:05;23.59;36.14
65876;HTU21D;52657;51.128;5.938;2023-05-29T12:25:34;23.87;36.06
65876;HTU21D;52657;51.128;5.938;2023-05-29T12:28:02;23.98;35.50
65876;HTU21D;52657;51.128;5.938;2023-05-29T12:30:28;23.98;35.44
65876;HTU21D;52657;51.128;5.938;2023-05-29T12:32:53;24.08;35.76
65876;HTU21D;52657;51.128;5.938;2023-05-29T12:35:21;24.20;35.07
65876;HTU21D;52657;51.128;5.938;2023-05-29T12:37:59;24.11;35.49
65876;HTU21D;52657;51.128;5.938;2023-05-29T12:40:26;24.11;35.35
65876;HTU21D;52657;51.128;5.938;2023-05-29T12:43:03;24.06;35.10
65876;HTU21D;52657;51.128;5.938;2023-05-29T12:45:32;24.05;35.52
65876;HTU21D;52657;51.128;5.938;2023-05-29T12:48:03;24.19;35.52
65876;HTU21D;52657;51.128;5.938;2023-05-29T12:50:34;24.25;35.25
65876;HTU21D;52657;51.128;5.938;2023-05-29T12:53:02;24.21;35.37
65876;HTU21D;52657;51.128;5.938;2023-05-29T12:55:30;24.21;34.62
65876;HTU21D;52657;51.128;5.938;2023-05-29T12:57:59;24.06;35.05
65876;HTU21D;52657;51.128;5.938;2023-05-29T13:00:25;24.02;34.91
65876;HTU21D;52657;51.128;5.938;2023-05-29T13:02:51;23.99;35.38
65876;HTU21D;52657;51.128;5.938;2023-05-29T13:05:18;23.99;35.28
65876;HTU21D;52657;51.128;5.938;2023-05-29T13:07:46;24.06;35.48
65876;HTU21D;52657;51.128;5.938;2023-05-29T13:10:16;24.25;35.58
65876;HTU21D;52657;51.128;5.938;2023-05-29T13:12:51;24.34;35.25
65876;HTU21D;52657;51.128;5.938;2023-05-29T13:15:21;24.34;35.22
65876;HTU21D;52657;51.128;5.938;2023-05-29T13:17:48;24.43;34.23
65876;HTU21D;52657;51.128;5.938;2023-05-29T13:20:17;24.28;34.50
65876;HTU21D;52657;51.128;5.938;2023-05-29T13:22:46;24.09;34.70
65876;HTU21D;52657;51.128;5.938;2023-05-29T13:25:17;23.83;35.44
65876;HTU21D;52657;51.128;5.938;2023-05-29T13:27:47;23.80;35.36
65876;HTU21D;52657;51.128;5.938;2023-05-29T13:30:16;23.77;35.33
65876;HTU21D;52657;51.128;5.938;2023-05-29T13:32:42;23.82;35.24
65876;HTU21D;52657;51.128;5.938;2023-05-29T13:35:09;23.82;35.17
65876;HTU21D;52657;51.128;5.938;2023-05-29T13:37:36;23.87;35.07
65876;HTU21D;52657;51.128;5.938;2023-05-29T13:40:02;23.97;34.96
65876;HTU21D;52657;51.128;5.938;2023-05-29T13:42:32;23.98;34.43
65876;HTU21D;52657;51.128;5.938;2023-05-29T13:44:58;23.96;34.62
65876;HTU21D;52657;51.128;5.938;2023-05-29T13:47:24;23.94;34.60
65876;HTU21D;52657;51.128;5.938;2023-05-29T13:49:54;24.01;34.89
65876;HTU21D;52657;51.128;5.938;2023-05-29T13:52:19;24.13;34.47
65876;HTU21D;52657;51.128;5.938;2023-05-29T13:54:51;24.08;34.68
65876;HTU21D;52657;51.128;5.938;2023-05-29T13:57:16;24.06;34.23
65876;HTU21D;52657;51.128;5.938;2023-05-29T13:59:47;24.04;34.34
65876;HTU21D;52657;51.128;5.938;2023-05-29T14:02:14;24.11;34.08
65876;HTU21D;52657;51.128;5.938;2023-05-29T14:04:40;24.00;34.07
65876;HTU21D;52657;51.128;5.938;2023-05-29T14:07:10;23.88;34.14
65876;HTU21D;52657;51.128;5.938;2023-05-29T14:09:39;23.82;34.40
65876;HTU21D;52657;51.128;5.938;2023-05-29T14:12:08;23.77;34.37
65876;HTU21D;52657;51.128;5.938;2023-05-29T14:14:35;23.80;34.86
65876;HTU21D;52657;51.128;5.938;2023-05-29T14:17:04;23.81;34.35
65876;HTU21D;52657;51.128;5.938;2023-05-29T14:19:36;23.75;34.84
65876;HTU21D;52657;51.128;5.938;2023-05-29T14:22:01;23.84;34.98
65876;HTU21D;52657;51.128;5.938;2023-05-29T14:24:27;24.01;35.04
65876;HTU21D;52657;51.128;5.938;2023-05-29T14:26:53;24.19;34.83
65876;HTU21D;52657;51.128;5.938;2023-05-29T14:29:18;24.33;34.05
65876;HTU21D;52657;51.128;5.938;2023-05-29T14:31:46;24.27;34.17
65876;HTU21D;52657;51.128;5.938;2023-05-29T14:34:15;24.15;33.77
65876;HTU21D;52657;51.128;5.938;2023-05-29T14:36:43;24.06;34.31
65876;HTU21D;52657;51.128;5.938;2023-05-29T14:39:12;24.09;34.63
65876;HTU21D;52657;51.128;5.938;2023-05-29T14:41:44;24.14;34.44
65876;HTU21D;52657;51.128;5.938;2023-05-29T14:44:13;24.09;34.32
65876;HTU21D;52657;51.128;5.938;2023-05-29T14:46:44;24.13;34.31
65876;HTU21D;52657;51.128;5.938;2023-05-29T14:49:10;24.08;34.38
65876;HTU21D;52657;51.128;5.938;2023-05-29T14:51:35;23.99;34.46
65876;HTU21D;52657;51.128;5.938;2023-05-29T14:54:02;23.87;34.72
65876;HTU21D;52657;51.128;5.938;2023-05-29T14:56:30;23.95;34.90
65876;HTU21D;52657;51.128;5.938;2023-05-29T14:58:58;24.01;34.46
65876;HTU21D;52657;51.128;5.938;2023-05-29T15:01:24;24.06;34.30
65876;HTU21D;52657;51.128;5.938;2023-05-29T15:03:50;23.96;34.56
65876;HTU21D;52657;51.128;5.938;2023-05-29T15:06:17;23.99;34.47
65876;HTU21D;52657;51.128;5.938;2023-05-29T15:08:45;23.83;34.61
65876;HTU21D;52657;51.128;5.938;2023-05-29T15:11:17;23.82;34.91
65876;HTU21D;52657;51.128;5.938;2023-05-29T15:13:44;23.77;35.41
65876;HTU21D;52657;51.128;5.938;2023-05-29T15:16:10;23.83;35.16
65876;HTU21D;52657;51.128;5.938;2023-05-29T15:18:35;23.89;34.38
65876;HTU21D;52657;51.128;5.938;2023-05-29T15:21:03;23.73;34.56
65876;HTU21D;52657;51.128;5.938;2023-05-29T15:23:33;23.67;34.86
65876;HTU21D;52657;51.128;5.938;2023-05-29T15:26:02;23.73;34.50
65876;HTU21D;52657;51.128;5.938;2023-05-29T15:28:32;23.61;34.71
65876;HTU21D;52657;51.128;5.938;2023-05-29T15:30:58;23.67;34.70
65876;HTU21D;52657;51.128;5.938;2023-05-29T15:33:24;23.67;34.73
65876;HTU21D;52657;51.128;5.938;2023-05-29T15:35:49;23.68;34.79
65876;HTU21D;52657;51.128;5.938;2023-05-29T15:38:15;23.64;34.52
65876;HTU21D;52657;51.128;5.938;2023-05-29T15:40:45;23.55;34.49
65876;HTU21D;52657;51.128;5.938;2023-05-29T15:43:11;23.49;34.51
65876;HTU21D;52657;51.128;5.938;2023-05-29T15:45:37;23.36;34.74
65876;HTU21D;52657;51.128;5.938;2023-05-29T15:48:04;23.40;34.35